Time;durP1;ratioP1;P1;durP2;ratioP2;P2;SDS_P1;SDS_P2;PMS_P1;PMS_P2;Temp;Humidity;BMP_temperature;BMP_pressure;BME280_temperature;BME280_humidity;BME280_pressure;Samples;Min_cycle;Max_cycle;Signal;HPM_P1;HPM_P2
2023/11/08 07:05:48;;;;;;;11.05;2.00;;;;;;;23.74;66.54;101077.75;5119852;27;20793;-45
2023/11/08 07:08:13;;;;;;;15.75;1.83;;;;;;;23.77;66.54;101085.44;5087234;28;20036;-45
2023/11/08 07:10:38;;;;;;;10.77;1.67;;;;;;;23.77;66.51;101075.16;5090829;28;20034;-47
2023/11/08 07:13:04;;;;;;;10.50;1.98;;;;;;;23.73;66.03;101068.63;5087252;28;20391;-52
2023/11/08 07:15:30;;;;;;;4.35;1.80;;;;;;;23.68;65.87;101061.25;5097107;28;20031;-50
2023/11/08 07:17:56;;;;;;;9.23;1.63;;;;;;;23.63;66.08;101066.06;5090054;28;20839;-52
2023/11/08 07:20:22;;;;;;;4.25;1.40;;;;;;;23.59;66.07;101076.13;5094315;28;20448;-53
2023/11/08 07:22:47;;;;;;;8.38;1.90;;;;;;;23.55;65.81;101078.69;5088959;28;20040;-48
2023/11/08 07:25:14;;;;;;;4.82;1.40;;;;;;;23.52;65.44;101087.63;5090166;28;20031;-47
2023/11/08 07:27:40;;;;;;;3.75;1.58;;;;;;;23.48;65.67;101072.75;5091405;28;20433;-50
2023/11/08 07:30:10;;;;;;;4.25;1.60;;;;;;;23.44;65.84;101078.09;5093142;28;20106;-50
2023/11/08 07:32:37;;;;;;;3.45;1.70;;;;;;;23.45;65.55;101082.50;5088303;28;20031;-44
2023/11/08 07:35:04;;;;;;;2.80;1.63;;;;;;;23.40;65.72;101080.66;5085699;28;20044;-47
2023/11/08 07:37:30;;;;;;;4.07;1.38;;;;;;;23.39;65.45;101081.78;5085135;28;20038;-47
2023/11/08 07:39:55;;;;;;;2.63;1.48;;;;;;;23.35;65.68;101080.75;5081186;28;20468;-46
2023/11/08 07:42:22;;;;;;;3.78;1.52;;;;;;;23.33;65.67;101084.97;5088063;28;20036;-44
2023/11/08 07:44:47;;;;;;;2.63;1.30;;;;;;;23.30;65.78;101086.41;5098268;28;20507;-46
2023/11/08 07:47:13;;;;;;;3.28;1.45;;;;;;;23.27;65.68;101089.75;5084956;28;20101;-47
2023/11/08 07:49:40;;;;;;;3.13;1.50;;;;;;;23.24;65.54;101085.66;5086791;28;20036;-42
2023/11/08 07:52:05;;;;;;;3.97;1.50;;;;;;;23.21;65.55;101085.47;5096551;28;20020;-44
2023/11/08 07:54:35;;;;;;;3.17;1.52;;;;;;;23.18;65.37;101084.13;5092462;28;20427;-42
2023/11/08 07:57:00;;;;;;;3.00;1.27;;;;;;;23.14;65.00;101085.00;5089640;28;20107;-45
2023/11/08 07:59:27;;;;;;;21.50;2.70;;;;;;;23.10;65.99;101090.34;5080014;28;21047;-42
2023/11/08 08:01:52;;;;;;;6.28;1.45;;;;;;;23.04;65.40;101084.09;5094842;28;20027;-41
2023/11/08 08:04:17;;;;;;;5.88;1.15;;;;;;;22.97;65.42;101093.91;5086956;28;20854;-41
2023/11/08 08:06:43;;;;;;;8.40;1.50;;;;;;;22.92;65.73;101089.31;5080746;28;20407;-41
2023/11/08 08:09:14;;;;;;;3.50;1.52;;;;;;;22.86;65.64;101085.00;5095390;28;20114;-42
2023/11/08 08:11:44;;;;;;;12.70;1.60;;;;;;;22.78;65.87;101092.03;5093947;28;20151;-42
2023/11/08 08:14:09;;;;;;;5.38;1.25;;;;;;;22.69;66.02;101086.38;5088402;28;20012;-41
2023/11/08 08:16:35;;;;;;;5.40;1.45;;;;;;;22.62;65.59;101079.63;5076402;28;20039;-42
2023/11/08 08:19:01;;;;;;;6.45;1.33;;;;;;;22.55;66.08;101074.47;5077974;28;20016;-41
2023/11/08 08:21:26;;;;;;;3.33;1.25;;;;;;;22.49;66.22;101068.22;5072108;28;20085;-42
2023/11/08 08:23:54;;;;;;;2.22;1.27;;;;;;;22.43;66.32;101081.28;5079830;28;20078;-41
2023/11/08 08:26:19;;;;;;;4.32;1.40;;;;;;;22.40;66.58;101076.38;5074896;28;20028;-41
2023/11/08 08:28:44;;;;;;;5.38;1.38;;;;;;;22.35;66.38;101078.38;5080597;28;20080;-42
2023/11/08 08:31:10;;;;;;;3.03;1.45;;;;;;;22.29;66.63;101074.84;5049243;28;20412;-41
2023/11/08 08:33:35;;;;;;;1.90;1.10;;;;;;;22.24;66.79;101086.81;5069235;28;20103;-42
2023/11/08 08:36:00;;;;;;;4.60;1.58;;;;;;;22.20;66.57;101079.44;5074722;28;20028;-41
2023/11/08 08:38:26;;;;;;;3.60;1.45;;;;;;;22.16;66.80;101079.22;5080806;28;20598;-41
2023/11/08 08:40:52;;;;;;;3.67;1.40;;;;;;;22.12;67.01;101064.34;5069404;28;20028;-43
2023/11/08 08:43:20;;;;;;;3.80;1.08;;;;;;;22.08;67.06;101069.69;5080947;28;20028;-42
2023/11/08 08:45:45;;;;;;;3.70;1.20;;;;;;;22.04;67.19;101071.38;5073865;28;20415;-43
2023/11/08 08:48:11;;;;;;;2.80;1.40;;;;;;;22.00;66.97;101069.50;5072053;28;20027;-42
2023/11/08 08:50:36;;;;;;;2.40;1.27;;;;;;;21.98;67.07;101071.75;5069591;28;20365;-42
2023/11/08 08:53:02;;;;;;;3.92;1.40;;;;;;;21.95;66.82;101070.44;5074821;28;20368;-42
2023/11/08 08:55:28;;;;;;;2.63;1.55;;;;;;;21.94;66.93;101075.09;5070776;28;20094;-42
2023/11/08 08:57:53;;;;;;;8.90;1.50;;;;;;;21.92;66.53;101074.56;5070970;28;20024;-42
2023/11/08 09:00:18;;;;;;;3.08;1.40;;;;;;;21.91;66.63;101074.88;5079485;28;20028;-43
2023/11/08 09:02:44;;;;;;;3.95;1.80;;;;;;;21.90;66.69;101076.00;5071714;28;20060;-42
2023/11/08 09:05:10;;;;;;;3.60;1.58;;;;;;;21.87;66.51;101074.66;5071112;28;20037;-43
2023/11/08 09:07:35;;;;;;;4.75;1.38;;;;;;;21.85;66.62;101071.38;5074543;28;20035;-42
2023/11/08 09:10:01;;;;;;;4.65;1.60;;;;;;;21.83;66.23;101076.38;5071461;28;20020;-42
2023/11/08 09:12:26;;;;;;;4.22;1.40;;;;;;;21.80;66.46;101077.78;5078038;28;20034;-42
2023/11/08 09:14:52;;;;;;;2.67;1.80;;;;;;;21.78;66.30;101065.41;5079778;28;20110;-42
2023/11/08 09:17:19;;;;;;;3.35;1.50;;;;;;;21.74;66.72;101073.47;5076098;28;20027;-43
2023/11/08 09:19:44;;;;;;;3.13;1.48;;;;;;;21.72;66.57;101064.66;5075306;28;20933;-43
2023/11/08 09:22:11;;;;;;;3.83;1.63;;;;;;;21.70;66.67;101071.59;5073970;28;20185;-42
2023/11/08 09:24:37;;;;;;;2.83;1.50;;;;;;;21.66;66.59;101062.28;5069663;28;20491;-43
2023/11/08 09:27:02;;;;;;;7.85;1.88;;;;;;;21.64;67.40;101060.63;5078104;28;20020;-43
2023/11/08 09:29:28;;;;;;;20.45;2.30;;;;;;;21.63;67.39;101056.22;5066392;28;20123;-41
2023/11/08 09:31:53;;;;;;;19.45;2.58;;;;;;;21.64;67.88;101055.13;5065240;28;20418;-44
2023/11/08 09:34:19;;;;;;;28.08;2.58;;;;;;;21.69;68.05;101058.91;5081734;28;20421;-44
2023/11/08 09:36:46;;;;;;;22.13;3.00;;;;;;;21.72;68.40;101047.31;5078091;28;20103;-45
2023/11/08 09:39:13;;;;;;;11.63;2.33;;;;;;;21.73;68.13;101060.78;5075919;28;20503;-45
2023/11/08 09:41:39;;;;;;;5.60;2.05;;;;;;;21.75;67.82;101042.00;5083445;28;20054;-42
2023/11/08 09:44:05;;;;;;;8.93;2.15;;;;;;;21.79;68.08;101048.56;5076077;28;20036;-43
2023/11/08 09:46:31;;;;;;;7.05;1.98;;;;;;;21.83;68.01;101056.22;5076790;28;20024;-42
2023/11/08 09:48:56;;;;;;;5.63;1.90;;;;;;;21.83;67.17;101046.03;5070552;28;20665;-44
2023/11/08 09:51:22;;;;;;;4.88;1.75;;;;;;;21.89;67.10;101046.78;5070077;28;20024;-42
2023/11/08 09:53:48;;;;;;;7.35;2.10;;;;;;;21.90;66.66;101048.41;5075734;28;20055;-45
2023/11/08 09:56:14;;;;;;;6.45;2.00;;;;;;;21.93;66.96;101045.88;5068878;28;20050;-46
2023/11/08 09:58:43;;;;;;;4.88;2.00;;;;;;;21.96;66.48;101041.69;5071827;28;20025;-50
2023/11/08 10:01:13;;;;;;;8.75;2.65;;;;;;;21.98;66.24;101041.41;5069743;28;20046;-46
2023/11/08 10:03:41;;;;;;;4.63;1.70;;;;;;;22.00;66.14;101030.88;5067559;28;20036;-45
2023/11/08 10:06:07;;;;;;;6.05;1.83;;;;;;;22.00;66.53;101028.13;5081490;28;20024;-40
2023/11/08 10:08:33;;;;;;;5.90;2.20;;;;;;;22.02;66.36;101034.16;5073880;28;20606;-42
2023/11/08 10:10:59;;;;;;;3.90;1.90;;;;;;;22.04;65.99;101034.69;5078793;28;20028;-42
2023/11/08 10:13:54;;;;;;;7.40;1.90;;;;;;;22.06;66.02;101026.91;5072695;28;20115;-44
2023/11/08 10:16:27;;;;;;;5.35;1.92;;;;;;;22.08;65.91;101025.53;5077536;28;20097;-41
2023/11/08 10:19:01;;;;;;;6.25;1.95;;;;;;;22.09;65.87;101023.56;5079658;28;20364;-45
2023/11/08 10:21:27;;;;;;;4.40;2.10;;;;;;;22.08;65.68;101006.19;5079102;28;20127;-44
2023/11/08 10:23:56;;;;;;;5.57;2.13;;;;;;;22.11;65.87;101010.28;5071754;28;20099;-44
2023/11/08 10:26:22;;;;;;;7.30;2.20;;;;;;;22.11;65.38;101005.59;5074599;28;20027;-43
2023/11/08 10:28:57;;;;;;;7.35;2.25;;;;;;;22.13;65.42;101002.50;5083002;28;20066;-42
2023/11/08 10:31:28;;;;;;;6.68;2.28;;;;;;;22.13;65.56;101002.50;5067325;28;20074;-45
2023/11/08 10:33:59;;;;;;;5.82;2.40;;;;;;;22.15;65.32;101002.22;5065309;28;20028;-48
2023/11/08 10:36:26;;;;;;;6.47;2.22;;;;;;;22.15;65.29;101005.81;5068875;28;20575;-44
2023/11/08 10:38:51;;;;;;;9.68;2.40;;;;;;;22.17;65.40;101002.72;5072000;28;20587;-42
2023/11/08 10:41:17;;;;;;;6.32;2.53;;;;;;;22.15;65.47;101000.28;5074265;28;20028;-42
2023/11/08 10:43:43;;;;;;;11.40;2.80;;;;;;;22.10;66.23;100984.63;5072593;28;20028;-44
2023/11/08 10:46:10;;;;;;;16.73;3.28;;;;;;;22.08;66.08;100986.03;5074855;28;20048;-42
2023/11/08 10:48:36;;;;;;;12.80;2.85;;;;;;;22.05;65.65;100976.44;5071502;28;20055;-41
2023/11/08 10:51:01;;;;;;;39.80;4.22;;;;;;;22.06;66.27;100980.00;5075852;28;20492;-42
2023/11/08 10:53:27;;;;;;;22.67;4.05;;;;;;;22.07;65.63;100974.19;5069565;28;20077;-44
2023/11/08 10:55:54;;;;;;;9.90;2.53;;;;;;;22.09;65.53;100979.41;5071159;28;20107;-44
2023/11/08 10:58:21;;;;;;;14.70;2.78;;;;;;;22.10;65.17;100965.28;5069849;28;20024;-44
2023/11/08 11:00:48;;;;;;;18.25;3.47;;;;;;;22.10;66.13;100962.53;5077253;28;20112;-43
2023/11/08 11:03:14;;;;;;;20.45;3.50;;;;;;;22.08;66.01;100959.28;5071074;28;20028;-44
2023/11/08 11:05:42;;;;;;;20.17;3.17;;;;;;;22.07;65.96;100951.28;5064656;28;20051;-42
2023/11/08 11:08:08;;;;;;;10.00;2.70;;;;;;;22.06;65.71;100944.13;5063910;28;20067;-46
2023/11/08 11:10:33;;;;;;;16.85;3.40;;;;;;;22.06;66.08;100944.97;5079781;28;20055;-47
2023/11/08 11:13:11;;;;;;;10.38;2.70;;;;;;;22.09;65.46;100938.00;5079632;28;20032;-47
2023/11/08 11:15:58;;;;;;;18.13;3.10;;;;;;;22.11;65.57;100944.06;5074939;28;20519;-46
2023/11/08 11:18:27;;;;;;;9.32;2.58;;;;;;;22.15;65.22;100949.78;5076401;28;20031;-47
2023/11/08 11:21:24;;;;;;;10.93;2.63;;;;;;;22.15;65.77;100936.00;5083994;28;20032;-45
2023/11/08 11:23:49;;;;;;;5.65;2.38;;;;;;;22.17;65.09;100940.09;5081598;28;20059;-44
2023/11/08 11:26:45;;;;;;;10.32;2.80;;;;;;;22.18;65.20;100940.88;5066260;28;20739;-41
2023/11/08 11:29:17;;;;;;;8.70;2.72;;;;;;;22.18;64.53;100936.19;5074229;28;20039;-39
2023/11/08 11:31:42;;;;;;;10.50;2.55;;;;;;;22.19;64.68;100937.81;5071524;28;20036;-40
2023/11/08 11:34:37;;;;;;;7.53;2.75;;;;;;;22.19;65.19;100926.78;5075811;28;20269;-41
2023/11/08 11:37:18;;;;;;;6.68;2.40;;;;;;;22.19;65.11;100915.72;5061798;28;20058;-44
2023/11/08 11:40:08;;;;;;;8.30;2.97;;;;;;;22.18;64.91;100916.03;5075833;28;20028;-47
2023/11/08 11:42:34;;;;;;;4.95;2.20;;;;;;;22.18;64.70;100905.84;5078067;28;20032;-44
2023/11/08 11:45:08;;;;;;;10.13;2.55;;;;;;;22.18;64.77;100907.75;5073352;28;20021;-46
2023/11/08 11:47:36;;;;;;;4.18;2.15;;;;;;;22.16;64.95;100899.78;5071717;28;20099;-46
2023/11/08 11:50:04;;;;;;;4.63;2.25;;;;;;;22.17;64.71;100903.38;5075535;28;20086;-45
2023/11/08 11:52:32;;;;;;;5.50;2.50;;;;;;;22.15;64.85;100909.19;5079689;28;20118;-47
2023/11/08 11:54:59;;;;;;;5.88;2.70;;;;;;;22.12;65.41;100902.34;5078235;28;20070;-49
2023/11/08 11:57:26;;;;;;;6.90;2.80;;;;;;;22.11;65.38;100903.47;5084266;28;20130;-47
2023/11/08 11:59:53;;;;;;;7.13;2.95;;;;;;;22.10;65.12;100898.25;5080562;28;20035;-45
2023/11/08 12:02:19;;;;;;;5.28;2.47;;;;;;;22.08;65.36;100893.03;5075910;28;20028;-44
2023/11/08 12:04:45;;;;;;;5.60;2.50;;;;;;;22.09;65.29;100885.56;5085343;28;20041;-46
2023/11/08 12:07:15;;;;;;;3.78;1.92;;;;;;;22.08;65.51;100878.41;5084822;28;20528;-42
2023/11/08 12:09:41;;;;;;;8.52;2.40;;;;;;;22.07;65.18;100887.81;5085030;28;20040;-44
2023/11/08 12:12:07;;;;;;;5.05;2.33;;;;;;;22.07;64.99;100882.28;5089438;28;20030;-43
2023/11/08 12:14:33;;;;;;;7.50;2.20;;;;;;;22.05;65.53;100876.28;5082092;28;20020;-42
2023/11/08 12:16:59;;;;;;;6.28;2.42;;;;;;;22.06;65.28;100861.31;5070979;28;20119;-44
2023/11/08 12:19:26;;;;;;;9.05;2.35;;;;;;;22.07;64.83;100865.72;5077124;28;20494;-40
2023/11/08 12:21:52;;;;;;;5.43;2.20;;;;;;;22.11;64.35;100852.97;5077808;28;20032;-41
2023/11/08 12:24:18;;;;;;;10.05;2.70;;;;;;;22.16;64.69;100846.53;5084488;28;20404;-43
2023/11/08 12:26:43;;;;;;;121.22;6.22;;;;;;;22.19;64.58;100841.22;5079392;28;20028;-44
2023/11/08 12:29:09;;;;;;;7.28;2.35;;;;;;;22.22;64.45;100843.38;5076750;28;20486;-44
2023/11/08 12:31:37;;;;;;;9.85;2.80;;;;;;;22.26;64.61;100846.34;5077292;28;20020;-45
2023/11/08 12:34:07;;;;;;;7.90;2.58;;;;;;;22.31;64.26;100835.19;5078464;28;20009;-39
2023/11/08 12:36:39;;;;;;;8.27;2.58;;;;;;;22.33;63.93;100834.88;5081985;28;20349;-40
2023/11/08 12:39:10;;;;;;;6.32;2.20;;;;;;;22.35;63.98;100827.91;5071313;28;20596;-42
2023/11/08 12:41:46;;;;;;;8.50;2.60;;;;;;;22.37;64.02;100825.69;5080069;28;20035;-44
2023/11/08 12:44:13;;;;;;;5.13;2.45;;;;;;;22.37;63.93;100822.13;5078252;28;20477;-43
2023/11/08 12:46:53;;;;;;;9.48;2.60;;;;;;;22.37;64.08;100820.16;5080796;28;20032;-39
2023/11/08 12:49:24;;;;;;;6.82;2.72;;;;;;;22.38;63.67;100805.25;5075913;28;20035;-42
2023/11/08 12:51:49;;;;;;;5.18;2.25;;;;;;;22.40;64.12;100802.19;5069695;28;20025;-45
2023/11/08 12:54:17;;;;;;;7.55;2.40;;;;;;;22.40;64.20;100791.13;5080870;28;20027;-38
2023/11/08 12:56:43;;;;;;;5.97;2.40;;;;;;;22.43;63.74;100785.81;5080846;28;20085;-41
2023/11/08 12:59:16;;;;;;;7.15;2.40;;;;;;;22.46;63.97;100789.09;5079781;28;20419;-41
2023/11/08 13:01:43;;;;;;;8.68;2.30;;;;;;;22.46;63.44;100787.16;5071479;28;20028;-42
2023/11/08 13:04:09;;;;;;;6.68;2.05;;;;;;;22.43;63.83;100779.50;5079896;28;20040;-41
2023/11/08 13:06:34;;;;;;;6.78;2.20;;;;;;;22.41;63.40;100778.97;5080513;28;20028;-42
2023/11/08 13:09:00;;;;;;;12.10;2.83;;;;;;;22.37;63.80;100767.69;5086809;28;20028;-41
2023/11/08 13:11:25;;;;;;;9.00;2.30;;;;;;;22.33;63.64;100771.38;5081665;28;20028;-41
2023/11/08 13:13:53;;;;;;;7.90;2.40;;;;;;;22.29;63.81;100757.38;5073204;28;20036;-41
2023/11/08 13:16:19;;;;;;;6.72;2.10;;;;;;;22.25;63.64;100742.56;5075737;28;20078;-41
2023/11/08 13:18:44;;;;;;;6.68;2.20;;;;;;;22.21;63.83;100745.13;5078731;28;20059;-42
2023/11/08 13:21:10;;;;;;;77.47;5.57;;;;;;;22.19;64.21;100739.06;5077237;28;20108;-39
2023/11/08 13:23:35;;;;;;;7.57;2.38;;;;;;;22.20;64.18;100726.91;5081749;28;20068;-38
2023/11/08 13:26:01;;;;;;;17.65;2.50;;;;;;;22.22;64.24;100721.09;5071785;28;20111;-38
2023/11/08 13:28:26;;;;;;;7.97;2.40;;;;;;;22.23;64.06;100715.28;5069875;28;20036;-40
2023/11/08 13:30:52;;;;;;;7.25;2.15;;;;;;;22.28;64.11;100714.34;5075348;28;20036;-39
2023/11/08 13:33:18;;;;;;;6.38;1.95;;;;;;;22.33;63.95;100714.22;5076687;28;20061;-40
2023/11/08 13:35:44;;;;;;;12.20;2.00;;;;;;;22.36;64.00;100705.31;5075229;28;20035;-41
2023/11/08 13:38:10;;;;;;;7.93;2.40;;;;;;;22.45;63.90;100691.63;5071413;28;20063;-38
2023/11/08 13:40:37;;;;;;;23.60;2.72;;;;;;;22.54;64.98;100700.00;5072257;28;20500;-40
2023/11/08 13:43:02;;;;;;;12.00;2.20;;;;;;;22.60;64.03;100687.72;5075420;28;20012;-44
2023/11/08 13:45:27;;;;;;;3.92;1.90;;;;;;;22.63;63.24;100675.22;5056063;28;20028;-40
2023/11/08 13:47:53;;;;;;;4.53;2.00;;;;;;;22.69;63.33;100679.50;5076429;28;20118;-43
2023/11/08 13:50:18;;;;;;;3.75;1.58;;;;;;;22.74;62.82;100671.06;5075195;28;20118;-38
2023/11/08 13:52:45;;;;;;;5.18;2.08;;;;;;;22.77;62.84;100662.19;5071053;28;20019;-37
2023/11/08 13:55:12;;;;;;;6.00;2.03;;;;;;;22.79;62.59;100670.16;5077541;28;20426;-39
2023/11/08 13:57:37;;;;;;;27.75;3.35;;;;;;;22.78;62.87;100658.25;5072708;28;20024;-38
2023/11/08 14:00:09;;;;;;;26.20;3.13;;;;;;;22.77;63.41;100673.22;5082556;28;20073;-38
2023/11/08 14:02:35;;;;;;;14.73;1.98;;;;;;;22.75;63.53;100659.72;5075980;28;20024;-39
2023/11/08 14:05:03;;;;;;;57.25;4.47;;;;;;;22.66;63.67;100669.06;5080283;28;20493;-37
2023/11/08 14:07:31;;;;;;;486.23;28.83;;;;;;;22.65;63.76;100664.66;5065482;28;20492;-38
2023/11/08 14:09:58;;;;;;;338.83;18.05;;;;;;;22.62;63.74;100645.97;5070995;28;20249;-40
2023/11/08 14:12:25;;;;;;;24.88;3.58;;;;;;;22.58;63.99;100654.88;5081980;28;20031;-39
2023/11/08 14:14:51;;;;;;;24.95;2.45;;;;;;;22.54;63.51;100640.06;5077423;28;20027;-39
2023/11/08 14:17:19;;;;;;;31.67;3.85;;;;;;;22.50;63.72;100630.78;5068981;28;20457;-42
2023/11/08 14:19:46;;;;;;;21.08;3.25;;;;;;;22.46;63.97;100631.72;5082890;28;20028;-42
2023/11/08 14:22:12;;;;;;;24.85;2.95;;;;;;;22.43;64.23;100627.63;5083262;28;20054;-40
2023/11/08 14:24:37;;;;;;;19.73;2.53;;;;;;;22.42;63.89;100606.66;5081734;28;20016;-40
2023/11/08 14:27:03;;;;;;;9.77;2.10;;;;;;;22.41;64.36;100621.59;5079712;28;20020;-40
2023/11/08 14:29:30;;;;;;;8.88;2.00;;;;;;;22.41;64.17;100605.03;5077587;28;20722;-40
2023/11/08 14:31:55;;;;;;;14.77;2.33;;;;;;;22.42;64.52;100598.38;5076843;28;20023;-41
2023/11/08 14:34:21;;;;;;;9.18;1.95;;;;;;;22.41;64.40;100591.22;5075075;28;20024;-40
2023/11/08 14:36:46;;;;;;;14.02;3.00;;;;;;;22.41;64.45;100597.53;5078586;28;20028;-42
2023/11/08 14:39:12;;;;;;;20.10;2.58;;;;;;;22.42;64.52;100576.28;5074145;28;20085;-41
2023/11/08 14:41:37;;;;;;;27.85;3.53;;;;;;;22.42;64.67;100592.84;5080878;28;20145;-40
2023/11/08 14:44:03;;;;;;;13.20;2.20;;;;;;;22.40;64.61;100587.66;5070143;28;20040;-40
2023/11/08 14:46:28;;;;;;;41.15;3.58;;;;;;;22.40;64.72;100584.06;5074445;28;20476;-40
2023/11/08 14:48:54;;;;;;;9.70;2.13;;;;;;;22.38;65.08;100581.63;5068730;28;20111;-40
2023/11/08 14:51:20;;;;;;;44.30;3.08;;;;;;;22.38;65.13;100581.63;5078157;28;20246;-40
2023/11/08 14:53:48;;;;;;;14.65;2.58;;;;;;;22.39;65.03;100587.94;5070724;28;20036;-38
2023/11/08 14:56:14;;;;;;;11.90;2.47;;;;;;;22.38;64.64;100589.91;5073768;28;20028;-42
2023/11/08 14:58:39;;;;;;;16.42;2.67;;;;;;;22.40;64.92;100592.34;5072716;28;20228;-43
2023/11/08 15:01:05;;;;;;;9.55;2.17;;;;;;;22.41;65.00;100583.75;5081043;28;20048;-43
2023/11/08 15:03:30;;;;;;;10.43;2.50;;;;;;;22.43;64.73;100555.84;5073031;28;20052;-43
2023/11/08 15:05:56;;;;;;;13.55;2.28;;;;;;;22.44;64.56;100560.25;5067438;28;20564;-43
2023/11/08 15:08:22;;;;;;;8.43;2.67;;;;;;;22.44;64.55;100566.56;5080395;28;20020;-43
2023/11/08 15:10:47;;;;;;;4.60;2.00;;;;;;;22.43;64.42;100551.13;5082790;28;20107;-43
2023/11/08 15:13:13;;;;;;;7.20;2.30;;;;;;;22.43;64.61;100540.06;5075199;28;20028;-42
2023/11/08 15:15:39;;;;;;;6.60;2.08;;;;;;;22.40;64.76;100543.47;5073729;28;20024;-42
2023/11/08 15:18:05;;;;;;;2.92;1.98;;;;;;;22.38;64.75;100553.22;5072349;28;20116;-43
2023/11/08 15:20:30;;;;;;;7.35;2.05;;;;;;;22.33;64.69;100551.34;5081412;28;20483;-43
2023/11/08 15:22:56;;;;;;;5.32;2.30;;;;;;;22.31;64.41;100558.31;5076210;28;20019;-42
2023/11/08 15:25:22;;;;;;;7.57;2.35;;;;;;;22.26;64.77;100554.53;5075295;28;20511;-39
2023/11/08 15:27:47;;;;;;;10.68;2.10;;;;;;;22.24;65.03;100531.97;5079505;28;20186;-41
2023/11/08 15:30:13;;;;;;;8.55;2.50;;;;;;;22.24;65.25;100531.97;5078374;28;20028;-39
2023/11/08 15:32:39;;;;;;;9.73;2.30;;;;;;;22.24;65.25;100526.44;5080594;28;20032;-39
2023/11/08 15:35:05;;;;;;;38.95;3.47;;;;;;;22.25;65.50;100541.06;5073574;28;20027;-42
2023/11/08 15:37:30;;;;;;;13.88;2.22;;;;;;;22.26;65.65;100528.88;5074579;28;20029;-40
2023/11/08 15:39:56;;;;;;;8.10;2.10;;;;;;;22.25;65.35;100519.78;5079641;28;20028;-40
2023/11/08 15:42:21;;;;;;;9.00;2.20;;;;;;;22.27;65.92;100520.28;5087638;28;20263;-40
2023/11/08 15:44:48;;;;;;;7.30;2.30;;;;;;;22.26;65.73;100526.94;5081979;28;20054;-41
2023/11/08 15:47:13;;;;;;;6.35;1.90;;;;;;;22.27;65.59;100520.28;5081693;28;20484;-43
2023/11/08 15:49:39;;;;;;;4.68;1.60;;;;;;;22.30;65.42;100504.22;5082836;28;20020;-40
2023/11/08 15:52:04;;;;;;;7.85;2.00;;;;;;;22.35;64.98;100498.56;5076989;28;20028;-39
2023/11/08 15:54:29;;;;;;;94.53;6.38;;;;;;;22.40;64.93;100510.34;5082030;28;20111;-41
2023/11/08 15:56:55;;;;;;;6.25;2.17;;;;;;;22.44;64.78;100500.28;5086936;28;20387;-48
2023/11/08 15:59:20;;;;;;;36.90;3.00;;;;;;;22.51;64.82;100502.59;5094266;28;20502;-46
2023/11/08 16:01:46;;;;;;;6.07;2.03;;;;;;;22.54;65.10;100499.22;5084059;28;20093;-49
2023/11/08 16:04:13;;;;;;;7.78;1.88;;;;;;;22.55;64.43;100492.56;5080468;28;20059;-47
2023/11/08 16:06:38;;;;;;;3.38;1.70;;;;;;;22.57;64.43;100495.84;5083127;28;20141;-51
2023/11/08 16:09:09;;;;;;;12.60;1.83;;;;;;;22.58;64.21;100493.88;5075998;28;20675;-51
2023/11/08 16:11:35;;;;;;;10.02;2.30;;;;;;;22.57;64.54;100486.72;5080513;28;20023;-53
2023/11/08 16:14:00;;;;;;;6.53;2.10;;;;;;;22.52;64.60;100481.34;5088987;28;20468;-53
2023/11/08 16:16:26;;;;;;;8.45;2.15;;;;;;;22.48;64.72;100483.13;5091476;28;20026;-52
2023/11/08 16:18:51;;;;;;;10.98;1.95;;;;;;;22.42;64.78;100476.91;5088081;28;20503;-41
2023/11/08 16:21:17;;;;;;;9.35;2.05;;;;;;;22.39;64.86;100477.50;5087006;28;20067;-41
2023/11/08 16:23:42;;;;;;;3.83;1.90;;;;;;;22.38;64.63;100482.22;5084321;28;20039;-41
2023/11/08 16:26:08;;;;;;;6.95;1.83;;;;;;;22.38;64.80;100479.47;5081403;28;20111;-52
2023/11/08 16:28:33;;;;;;;5.43;1.90;;;;;;;22.44;64.77;100474.63;5090500;28;20491;-52
2023/11/08 16:30:59;;;;;;;7.07;1.60;;;;;;;22.50;64.82;100469.78;5087192;28;20033;-51
2023/11/08 16:33:24;;;;;;;5.88;1.83;;;;;;;22.57;64.86;100470.16;5088793;28;20043;-53
2023/11/08 16:35:50;;;;;;;3.88;1.67;;;;;;;22.65;64.59;100463.03;5086636;28;20103;-41
2023/11/08 16:38:15;;;;;;;3.53;1.55;;;;;;;22.75;64.18;100473.81;5073518;28;20035;-41
2023/11/08 16:40:41;;;;;;;4.40;1.50;;;;;;;22.80;64.51;100468.16;5071637;28;20048;-42
2023/11/08 16:43:06;;;;;;;7.50;1.67;;;;;;;22.87;64.40;100464.94;5077471;28;20384;-41
2023/11/08 16:45:32;;;;;;;5.45;1.63;;;;;;;22.94;64.63;100461.69;5086855;28;20095;-41
2023/11/08 16:47:58;;;;;;;4.10;1.80;;;;;;;23.01;64.02;100459.28;5080091;28;20028;-41
2023/11/08 16:50:24;;;;;;;3.05;1.75;;;;;;;23.06;64.07;100457.16;5080064;28;20484;-52
2023/11/08 16:52:50;;;;;;;4.30;1.58;;;;;;;23.12;63.89;100459.81;5090976;28;20032;-53
2023/11/08 16:55:16;;;;;;;3.63;1.60;;;;;;;23.14;64.21;100454.75;5088220;28;20365;-53
2023/11/08 16:57:42;;;;;;;3.78;1.40;;;;;;;23.16;64.27;100466.31;5090207;28;20117;-53
2023/11/08 17:00:10;;;;;;;4.10;1.80;;;;;;;23.15;63.86;100454.47;5084392;28;20024;-53
2023/11/08 17:02:36;;;;;;;3.75;1.55;;;;;;;23.15;63.89;100454.47;5088105;28;20092;-50
2023/11/08 17:05:02;;;;;;;6.25;1.60;;;;;;;23.13;64.05;100453.16;5088500;28;20442;-52
2023/11/08 17:07:27;;;;;;;1.58;1.30;;;;;;;23.08;63.89;100441.09;5080644;28;20025;-53
2023/11/08 17:09:53;;;;;;;4.20;1.70;;;;;;;23.06;64.24;100448.09;5086238;28;20073;-50
2023/11/08 17:12:20;;;;;;;3.35;1.60;;;;;;;23.03;64.04;100441.25;5085459;28;20020;-51
2023/11/08 17:14:47;;;;;;;2.30;1.40;;;;;;;22.99;64.01;100433.91;5087435;28;20028;-53
2023/11/08 17:17:12;;;;;;;4.15;1.73;;;;;;;22.94;64.40;100439.59;5086243;28;20507;-53
2023/11/08 17:19:38;;;;;;;5.03;1.40;;;;;;;22.91;64.46;100435.53;5084523;28;20020;-52
2023/11/08 17:22:04;;;;;;;1.45;1.25;;;;;;;22.87;64.77;100446.41;5079578;28;20028;-42
2023/11/08 17:24:29;;;;;;;4.72;1.73;;;;;;;22.83;64.50;100431.59;5081301;28;20422;-42
2023/11/08 17:26:55;;;;;;;2.38;1.40;;;;;;;22.79;64.68;100430.59;5078600;28;20039;-42
2023/11/08 17:29:20;;;;;;;2.60;1.30;;;;;;;22.74;64.37;100426.03;5079976;28;20588;-43
2023/11/08 17:31:47;;;;;;;2.17;1.42;;;;;;;22.70;64.64;100422.28;5081398;28;20028;-42
2023/11/08 17:34:12;;;;;;;3.20;1.45;;;;;;;22.63;64.76;100421.94;5078455;28;20048;-42
2023/11/08 17:36:41;;;;;;;1.88;1.40;;;;;;;22.59;64.96;100415.41;5076275;28;20105;-42
2023/11/08 17:39:08;;;;;;;2.92;1.50;;;;;;;22.55;65.16;100430.97;5078058;28;20063;-42
2023/11/08 17:41:33;;;;;;;4.63;1.40;;;;;;;22.50;65.19;100420.06;5072930;28;20496;-43
2023/11/08 17:43:58;;;;;;;1.77;1.27;;;;;;;22.44;65.53;100420.22;5081138;28;20032;-42
2023/11/08 17:46:24;;;;;;;3.75;1.50;;;;;;;22.40;65.49;100416.47;5080282;28;20058;-43
2023/11/08 17:48:49;;;;;;;2.20;1.40;;;;;;;22.35;65.54;100407.47;5077068;28;20028;-42
2023/11/08 17:51:15;;;;;;;1.88;1.23;;;;;;;22.32;65.67;100411.69;5083710;28;20227;-42
2023/11/08 17:53:40;;;;;;;1.88;1.20;;;;;;;22.27;65.65;100403.53;5089266;28;20043;-52
2023/11/08 17:56:06;;;;;;;3.58;1.58;;;;;;;22.24;65.71;100416.03;5084720;28;20035;-53
2023/11/08 17:58:31;;;;;;;3.15;1.40;;;;;;;22.20;65.46;100400.41;5076011;28;20473;-52
2023/11/08 18:00:57;;;;;;;1.40;1.17;;;;;;;22.17;66.07;100398.28;5084481;28;20035;-52
2023/11/08 18:03:22;;;;;;;2.22;1.30;;;;;;;22.13;65.72;100400.84;5084054;28;20491;-55
2023/11/08 18:05:57;;;;;;;1.60;1.30;;;;;;;22.10;65.77;100398.75;5090268;28;20583;-53
2023/11/08 18:08:23;;;;;;;2.75;1.27;;;;;;;22.09;66.18;100392.38;5075639;28;20040;-53
2023/11/08 18:10:48;;;;;;;2.20;1.35;;;;;;;22.09;66.26;100394.34;5087361;28;20047;-52
2023/11/08 18:13:14;;;;;;;1.70;1.40;;;;;;;22.09;66.08;100405.38;5082729;28;20488;-52
2023/11/08 18:15:39;;;;;;;2.13;1.50;;;;;;;22.07;66.08;100396.59;5084467;28;20476;-50
2023/11/08 18:18:05;;;;;;;1.38;1.27;;;;;;;22.07;66.39;100391.06;5081788;28;20047;-50
2023/11/08 18:20:31;;;;;;;2.30;1.50;;;;;;;22.08;65.94;100398.22;5076151;28;20311;-51
2023/11/08 18:22:57;;;;;;;1.45;1.35;;;;;;;22.07;66.01;100391.06;5081084;28;20028;-52
2023/11/08 18:25:23;;;;;;;2.10;1.40;;;;;;;22.11;66.36;100389.34;5080623;28;20024;-51
2023/11/08 18:27:48;;;;;;;2.15;1.50;;;;;;;22.12;66.04;100390.94;5084782;28;20499;-50